createdAt,value
2019-05-14T00:04:34.250Z,28.86
2019-05-14T00:09:37.477Z,28.90
2019-05-14T00:14:43.630Z,28.99
2019-05-14T00:19:45.628Z,28.92
2019-05-14T00:24:48.853Z,29.01
2019-05-14T00:29:52.067Z,29.10
2019-05-14T00:34:55.280Z,29.03
2019-05-14T00:39:58.516Z,28.98
2019-05-14T00:45:01.733Z,29.00
2019-05-14T00:50:06.969Z,29.03
2019-05-14T00:55:11.780Z,28.98
2019-05-14T01:00:15.189Z,28.94
2019-05-14T01:05:18.392Z,29.07
2019-05-14T01:10:22.171Z,29.09
2019-05-14T01:15:25.505Z,29.10
2019-05-14T01:20:28.704Z,29.07
2019-05-14T01:25:32.026Z,29.14
2019-05-14T01:30:35.236Z,29.14
2019-05-14T01:35:38.447Z,29.18
2019-05-14T01:40:42.079Z,29.18
2019-05-14T01:45:45.457Z,29.17
2019-05-14T01:50:48.668Z,29.33
2019-05-14T01:55:52.200Z,29.24
2019-05-14T02:00:55.585Z,29.20
2019-05-14T02:06:01.203Z,29.27
2019-05-14T02:11:03.733Z,29.20
2019-05-14T02:16:06.972Z,29.25
2019-05-14T02:21:11.801Z,29.34
2019-05-14T02:26:15.173Z,29.24
2019-05-14T02:31:20.176Z,29.38
2019-05-14T02:36:23.338Z,29.21
2019-05-14T02:41:29.666Z,29.25
2019-05-14T02:46:31.496Z,29.32
2019-05-14T02:51:34.715Z,29.35
2019-05-14T02:56:40.280Z,29.35
2019-05-14T03:01:42.869Z,29.35
2019-05-14T03:06:46.082Z,29.39
2019-05-14T03:11:49.295Z,29.40
2019-05-14T03:16:52.504Z,29.38
2019-05-14T03:21:55.720Z,29.30
2019-05-14T03:26:59.008Z,29.38
2019-05-14T03:32:03.693Z,29.22
2019-05-14T03:37:13.220Z,29.24
2019-05-14T03:42:12.172Z,29.23
2019-05-14T03:47:15.381Z,29.23
2019-05-14T03:52:20.034Z,29.41
2019-05-14T03:57:23.519Z,29.25
2019-05-14T04:02:29.512Z,29.17
2019-05-14T04:07:31.671Z,29.27
2019-05-14T04:12:34.901Z,29.28
2019-05-14T04:17:42.157Z,29.21
2019-05-14T04:22:43.039Z,29.16
2019-05-14T04:27:49.127Z,28.94
2019-05-14T04:32:51.220Z,28.95
2019-05-14T04:37:54.391Z,28.87
2019-05-14T04:42:59.160Z,28.45
2019-05-14T04:48:22.546Z,28.60
2019-05-14T04:53:09.083Z,28.37
2019-05-14T04:58:12.682Z,28.29
2019-05-14T05:03:19.667Z,28.09
2019-05-14T05:08:20.824Z,27.87
2019-05-14T05:13:24.317Z,27.79
2019-05-14T05:18:29.513Z,27.71
2019-05-14T05:23:32.480Z,27.41
2019-05-14T05:28:35.696Z,27.50
2019-05-14T05:33:38.912Z,27.28
2019-05-14T05:38:42.127Z,27.36
2019-05-14T05:43:45.341Z,27.52
2019-05-14T05:48:48.557Z,27.11
2019-05-14T05:53:51.769Z,27.19
2019-05-14T05:58:54.993Z,27.23
2019-05-14T06:03:58.418Z,27.47
2019-05-14T06:09:01.721Z,27.48
2019-05-14T06:14:04.886Z,27.49
2019-05-14T06:19:08.397Z,27.42
2019-05-14T06:24:11.786Z,27.68
2019-05-14T06:29:14.998Z,28.08
2019-05-14T06:34:18.831Z,28.03
2019-05-14T06:39:22.104Z,27.81
2019-05-14T06:44:25.482Z,27.88
2019-05-14T06:49:29.128Z,28.06
2019-05-14T06:54:32.480Z,28.34
2019-05-14T06:59:37.936Z,28.02
2019-05-14T07:04:40.633Z,27.97
2019-05-14T07:09:43.851Z,27.70
2019-05-14T07:14:48.202Z,28.07
2019-05-14T07:19:51.679Z,28.14
2019-05-14T07:24:54.909Z,27.86
2019-05-14T07:29:58.452Z,27.64
2019-05-14T07:35:01.705Z,27.57
2019-05-14T07:40:05.489Z,27.23
2019-05-14T07:45:09.563Z,27.99
2019-05-14T07:50:13.063Z,27.49
2019-05-14T07:55:18.541Z,27.31
2019-05-14T08:00:21.377Z,27.55
2019-05-14T08:05:24.589Z,28.05
2019-05-14T08:10:29.014Z,28.15
2019-05-14T08:15:32.293Z,27.66
2019-05-14T08:20:37.827Z,27.36
2019-05-14T08:25:40.452Z,27.51
2019-05-14T08:30:43.696Z,27.97
2019-05-14T08:35:48.845Z,27.92
2019-05-14T08:40:51.847Z,27.40
2019-05-14T08:52:03.143Z,27.89
2019-05-14T08:57:09.377Z,27.92
2019-05-14T09:02:11.294Z,28.35
2019-05-14T09:07:15.290Z,28.39
2019-05-14T09:12:18.886Z,28.16
2019-05-14T09:17:22.252Z,28.12
2019-05-14T09:22:25.482Z,28.13
2019-05-14T09:27:29.345Z,27.84
2019-05-14T09:32:32.694Z,27.57
2019-05-14T09:37:35.899Z,27.28
2019-05-14T09:42:39.560Z,27.30
2019-05-14T09:47:48.172Z,27.19
2019-05-14T09:52:49.587Z,27.43
2019-05-14T09:57:52.819Z,27.08
2019-05-14T10:02:56.041Z,26.98
2019-05-14T10:07:59.526Z,27.10
2019-05-14T10:13:02.847Z,26.96
2019-05-14T10:18:11.074Z,26.82
2019-05-14T10:23:11.035Z,26.43
2019-05-14T10:28:14.250Z,26.42
2019-05-14T10:33:18.109Z,26.10
2019-05-14T10:38:21.667Z,26.01
2019-05-14T10:43:24.873Z,26.11
2019-05-14T10:48:29.094Z,26.02
2019-05-14T10:53:32.510Z,26.09
2019-05-14T10:58:35.727Z,26.16
2019-05-14T11:03:39.011Z,26.39
2019-05-14T11:08:42.175Z,26.61
2019-05-14T11:13:45.466Z,26.81
2019-05-14T11:18:49.892Z,26.72
2019-05-14T11:23:53.391Z,26.83
2019-05-14T11:28:58.614Z,26.89
2019-05-14T11:34:01.584Z,26.91
2019-05-14T11:39:09.080Z,27.30
2019-05-14T11:44:11.509Z,27.75
2019-05-14T11:49:14.744Z,28.30
2019-05-14T11:54:19.697Z,28.38
2019-05-14T11:59:22.919Z,28.69
2019-05-14T12:04:28.234Z,28.76
2019-05-14T12:09:31.070Z,29.01
2019-05-14T12:14:34.287Z,28.99
2019-05-14T12:19:39.383Z,29.09
2019-05-14T12:24:42.457Z,29.22
2019-05-14T12:29:45.662Z,29.42
2019-05-14T12:34:49.086Z,29.62
2019-05-14T12:39:52.490Z,29.65
2019-05-14T12:44:58.339Z,30.08
2019-05-14T12:50:00.645Z,29.92
2019-05-14T12:55:09.075Z,30.16
2019-05-14T13:00:12.859Z,30.26
2019-05-14T13:05:18.313Z,30.41
2019-05-14T13:10:21.062Z,30.67
2019-05-14T13:15:24.277Z,30.99
2019-05-14T13:20:29.068Z,30.97
2019-05-14T13:25:32.504Z,31.14
2019-05-14T13:30:35.724Z,31.25
2019-05-14T13:35:39.177Z,31.44
2019-05-14T13:40:42.518Z,31.15
2019-05-14T13:45:45.903Z,31.02
2019-05-14T13:50:49.332Z,30.93
2019-05-14T13:55:57.638Z,30.72
2019-05-14T14:00:59.163Z,30.70
2019-05-14T14:06:02.597Z,30.62
2019-05-14T14:11:05.828Z,30.72
2019-05-14T14:16:14.795Z,31.27
2019-05-14T14:21:14.000Z,31.29
2019-05-14T14:26:18.389Z,31.34
2019-05-14T14:31:21.793Z,31.52
2019-05-14T14:36:25.004Z,31.53
2019-05-14T14:41:28.531Z,31.43
2019-05-14T14:46:31.725Z,31.65
2019-05-14T14:51:41.743Z,31.75
2019-05-14T14:56:39.891Z,31.67
2019-05-14T15:01:43.144Z,31.82
2019-05-14T15:06:46.332Z,31.93
2019-05-14T15:11:49.575Z,32.05
2019-05-14T15:16:52.781Z,32.34
2019-05-14T15:21:56.006Z,32.05
2019-05-14T15:27:07.488Z,32.06
2019-05-14T15:32:04.186Z,32.02
2019-05-14T15:37:08.986Z,32.00
2019-05-14T15:42:13.678Z,32.04
2019-05-14T15:47:18.955Z,32.18
2019-05-14T15:52:22.433Z,32.09
2019-05-14T15:57:28.626Z,31.91
2019-05-14T16:02:30.584Z,31.82
2019-05-14T16:07:33.811Z,31.68
2019-05-14T16:12:39.941Z,31.63
2019-05-14T16:17:49.924Z,31.30
2019-05-14T16:22:46.956Z,30.66
2019-05-14T16:27:50.183Z,30.05
2019-05-14T16:32:53.405Z,29.84
2019-05-14T16:37:59.040Z,29.42
2019-05-14T16:43:01.593Z,29.23
2019-05-14T16:48:04.824Z,29.11
2019-05-14T16:53:11.686Z,28.53
2019-05-14T16:58:13.019Z,29.09
2019-05-14T17:03:18.842Z,28.99
2019-05-14T17:08:21.198Z,28.65
2019-05-14T17:13:24.434Z,27.88
2019-05-14T17:18:28.702Z,28.31
2019-05-14T17:23:32.231Z,28.25
2019-05-14T17:28:37.612Z,28.19
2019-05-14T17:33:40.414Z,27.90
2019-05-14T17:38:43.634Z,27.59
2019-05-14T17:43:48.790Z,27.94
2019-05-14T17:48:51.807Z,28.08
2019-05-14T17:53:55.051Z,27.99
2019-05-14T17:58:58.276Z,27.69
2019-05-14T18:04:01.505Z,27.69
2019-05-14T18:09:05.697Z,27.91
2019-05-14T18:14:11.931Z,28.01
2019-05-14T18:19:13.900Z,27.93
2019-05-14T18:24:18.925Z,27.61
2019-05-14T18:29:22.074Z,27.89
2019-05-14T18:34:25.292Z,27.94
2019-05-14T18:39:28.532Z,27.94
2019-05-14T18:44:31.763Z,27.94
2019-05-14T18:49:34.982Z,27.77
2019-05-14T18:54:38.747Z,27.81
2019-05-14T18:59:42.206Z,27.85
2019-05-14T19:04:45.426Z,27.79
2019-05-14T19:09:49.438Z,27.77
2019-05-14T19:14:52.766Z,27.79
2019-05-14T19:19:55.970Z,27.67
2019-05-14T19:24:59.195Z,27.77
2019-05-14T19:30:03.223Z,27.75
2019-05-14T19:35:08.639Z,27.65
2019-05-14T19:40:12.669Z,27.71
2019-05-14T19:45:15.897Z,27.72
2019-05-14T19:50:19.213Z,27.64
2019-05-14T19:55:22.447Z,27.53
2019-05-14T20:00:25.679Z,27.66
2019-05-14T20:05:28.895Z,27.72
2019-05-14T20:10:32.115Z,27.68
2019-05-14T20:15:35.346Z,27.60
2019-05-14T20:20:38.573Z,27.56
2019-05-14T20:25:41.780Z,27.64
2019-05-14T20:35:48.522Z,27.46
2019-05-14T20:40:52.166Z,27.60
2019-05-14T20:45:55.389Z,27.52
2019-05-14T20:50:58.626Z,27.51
2019-05-14T20:56:01.844Z,27.36
2019-05-14T21:01:05.076Z,27.53
2019-05-14T21:06:09.046Z,27.45
2019-05-14T21:11:12.362Z,27.36
2019-05-14T21:16:15.579Z,27.37
2019-05-14T21:21:18.813Z,27.35
2019-05-14T21:26:21.999Z,27.32
2019-05-14T21:31:28.228Z,27.29
2019-05-14T21:36:30.780Z,27.30
2019-05-14T21:41:34.774Z,27.25
2019-05-14T21:46:39.722Z,27.30
2019-05-14T21:51:42.935Z,27.26
2019-05-14T21:56:46.146Z,27.31
2019-05-14T22:01:49.355Z,27.39
2019-05-14T22:06:52.578Z,27.46
2019-05-14T22:11:58.148Z,27.46
2019-05-14T22:17:00.725Z,27.53
2019-05-14T22:22:03.936Z,27.59
2019-05-14T22:27:09.439Z,27.53
2019-05-14T22:32:12.141Z,27.49
2019-05-14T22:37:15.354Z,27.47
2019-05-14T22:42:18.935Z,27.57
2019-05-14T22:47:22.257Z,27.52
2019-05-14T22:52:25.469Z,27.47
2019-05-14T22:57:31.024Z,27.43
2019-05-14T23:02:34.005Z,27.51
2019-05-14T23:07:38.330Z,27.50
2019-05-14T23:12:41.821Z,27.45
2019-05-14T23:17:45.042Z,27.40
2019-05-14T23:22:49.210Z,27.45
2019-05-14T23:27:52.841Z,27.36
2019-05-14T23:32:56.068Z,27.32
2019-05-14T23:37:59.289Z,27.29
2019-05-14T23:43:02.502Z,27.33
2019-05-14T23:48:05.727Z,27.29
2019-05-14T23:53:09.399Z,27.23
2019-05-14T23:58:12.825Z,27.23
